Tilden, TX (78072)

11:23 AM CDT on October 31, 2014 (GMT -0500)
Huajuco Road | Change Station
CLOSE
Current Station
Personal Weather Station
Location: Cotulla, TX
Elevation: 394 ft
Nearby Weather Stations

Elev 394 ft 28.19 °N, 99.01 °W | Updated 11 seconds ago

Mostly Cloudy
Mostly Cloudy
68.0 °F
Feels Like 68.0 °F
N
4.2
Wind Variable Wind from NNW
Gusts 7.0 mph

Today
High -- | Low -- °F
--% Chance of Precip.
Yesterday
High -- | Low -- °F
Precip. -- in
7:45 AM 6:50 PM
First Quarter, 56% visible
Pressure 30.25 in
Visibility 10.0 miles
Clouds Overcast 5500 ft
Dew Point 65 °F
Humidity 92%
Rainfall 0.40 in
Snow Depth Not available.
UV 1 out of 12
Pollen 4.80 out of 12
Air Quality Not available.
Flu Activity Not available.
METAR KCOT 311553Z AUTO 06007KT 10SM OVC055 21/18 A3027 RMK AO2 SLP243 T02060178

More Conditions Fewer Conditions

Pressure 30.25 in
Visibility 10.0 miles
Clouds Overcast 5500 ft
Dew Point 65 °F
Humidity 92%
Rainfall 0.40 in
Snow Depth Not available.
UV 1 out of 12
Pollen 4.80 out of 12
Air Quality Not available.
Flu Activity Not available.
METAR KCOT 311553Z AUTO 06007KT 10SM OVC055 21/18 A3027 RMK AO2 SLP243 T02060178

More Conditions Fewer Conditions

Nowcast | as of 9:53 am CDT on October 31, 2014

Areas of light rain are currently affecting the southern Rio Grande plains...southern coastal Bend...and the bays...waterways...and nearshore waters south of Port Aransas. Rainfall will gradually end from north to south by noon. Further rainfall amounts will not exceed a tenth of an inch in most areas. However...there may still be some standing water on roadways due to heavy rainfall earlier this morning. If you encounter high water...do not attempt to drive through it!

×

10-Day Weather Forecast

Almanac

Astronomy

Oct. 31, 2014 Rise Set
Actual Time
Civil Twilight
Nautical Twilight
Astronomical Twilight
Moon
Length of Visible Light
Length of Day
Tomorrow will be .
, % of the Moon is Illuminated

Today's Extremes

State Highs State Lows

Community

WunderPhotos

Upload Photos

1,766,652 photos uploaded!

WunderBlogs® & News

Nearby

Air Quality

  Air Quality AQ Index Pollutant
Not available.

Snow Depth

Station Depth Elevation

Earthquake Activity

City Distance Mag. Time & Date
Minimum magnitude displayed is 2.5.

Coastal Water Temperatures

Place Temperature

Nearby Weather Stations